Time;durP1;ratioP1;P1;durP2;ratioP2;P2;SDS_P1;SDS_P2;PMS_P1;PMS_P2;Temp;Humidity;BMP_temperature;BMP_pressure;BME280_temperature;BME280_humidity;BME280_pressure;Samples;Min_cycle;Max_cycle;Signal;HPM_P1;HPM_P2
2021/08/02 00:02:28;;;;;;;20.92;7.70;;;;;;;29.95;37.34;100363.44;5060101;28;20441;-74
2021/08/02 00:05:04;;;;;;;21.65;7.28;;;;;;;29.85;37.52;100370.50;5065992;28;20129;-75
2021/08/02 00:07:35;;;;;;;23.17;8.10;;;;;;;29.86;37.60;100366.81;5056969;28;20044;-68
2021/08/02 00:10:11;;;;;;;15.30;6.78;;;;;;;29.85;37.81;100373.22;5052683;28;20037;-74
2021/08/02 00:12:47;;;;;;;21.30;7.40;;;;;;;29.77;38.14;100368.31;5057777;28;20041;-74
2021/08/02 00:15:17;;;;;;;20.80;7.65;;;;;;;29.75;38.09;100367.53;5049918;28;20504;-74
2021/08/02 00:17:46;;;;;;;20.02;8.20;;;;;;;29.67;38.41;100359.91;5066689;28;20079;-74
2021/08/02 00:20:16;;;;;;;18.85;8.07;;;;;;;29.70;38.81;100362.44;5063116;28;20048;-74
2021/08/02 00:22:46;;;;;;;20.15;8.50;;;;;;;29.78;38.79;100361.91;5050460;28;20057;-74
2021/08/02 00:25:16;;;;;;;26.60;8.02;;;;;;;29.80;38.97;100354.47;5048905;28;20140;-74
2021/08/02 00:27:44;;;;;;;21.05;8.68;;;;;;;29.78;39.04;100356.44;5059474;28;20086;-72
2021/08/02 00:30:12;;;;;;;23.13;8.25;;;;;;;29.73;39.32;100364.91;5050289;28;20050;-74
2021/08/02 00:32:40;;;;;;;23.45;7.97;;;;;;;29.73;39.21;100364.91;5067649;28;20048;-74
2021/08/02 00:35:08;;;;;;;19.15;7.25;;;;;;;29.86;39.20;100359.50;5053594;28;20032;-72
2021/08/02 00:37:41;;;;;;;18.92;7.60;;;;;;;29.90;39.31;100351.97;5040154;28;20053;-73
2021/08/02 00:40:38;;;;;;;19.67;7.97;;;;;;;29.86;39.62;100347.75;5069190;28;20055;-73
2021/08/02 00:43:27;;;;;;;22.77;8.13;;;;;;;29.77;39.73;100351.97;5063841;28;20128;-73
2021/08/02 00:45:55;;;;;;;17.30;7.22;;;;;;;29.81;39.68;100347.19;5063497;28;20045;-74
2021/08/02 00:48:28;;;;;;;19.67;8.23;;;;;;;29.64;40.68;100351.97;5062602;28;20064;-74
2021/08/02 00:51:02;;;;;;;19.98;8.63;;;;;;;29.51;41.11;100344.78;5059347;28;20452;-74
2021/08/02 00:53:30;;;;;;;21.95;8.10;;;;;;;29.47;41.00;100349.53;5050189;28;20067;-74
2021/08/02 00:56:00;;;;;;;14.20;7.35;;;;;;;29.53;41.01;100343.69;5049558;28;20047;-74
2021/08/02 00:58:33;;;;;;;17.63;8.20;;;;;;;29.67;40.99;100365.34;5062392;28;20051;-73
2021/08/02 01:01:01;;;;;;;26.45;8.68;;;;;;;29.64;41.19;100357.41;5062392;28;20046;-73
2021/08/02 01:03:31;;;;;;;18.67;8.27;;;;;;;29.60;41.44;100355.88;5063898;28;20098;-74
2021/08/02 01:05:58;;;;;;;21.10;7.93;;;;;;;29.60;41.39;100360.47;5067410;28;20049;-74
2021/08/02 01:08:29;;;;;;;22.20;9.52;;;;;;;29.69;41.20;100354.38;5068610;28;20037;-74
2021/08/02 01:11:00;;;;;;;22.38;8.57;;;;;;;29.70;41.24;100354.25;5065427;28;20551;-74
2021/08/02 01:13:33;;;;;;;21.00;8.15;;;;;;;29.66;41.58;100362.75;5069310;28;20060;-74
2021/08/02 01:16:03;;;;;;;26.73;9.02;;;;;;;29.52;42.05;100358.28;5063964;28;20091;-74
2021/08/02 01:18:33;;;;;;;19.35;8.38;;;;;;;29.37;42.34;100353.88;5063345;28;20456;-73
2021/08/02 01:21:06;;;;;;;29.88;9.20;;;;;;;29.38;42.69;100355.63;5063324;28;20474;-74
2021/08/02 01:23:38;;;;;;;23.27;7.60;;;;;;;29.43;42.21;100358.03;5052466;28;20494;-74
2021/08/02 01:26:41;;;;;;;20.25;8.20;;;;;;;29.58;41.81;100360.56;5052900;28;20048;-74
2021/08/02 01:29:46;;;;;;;23.77;7.97;;;;;;;29.64;41.40;100356.53;5063658;28;20045;-73
2021/08/02 01:32:14;;;;;;;26.50;8.40;;;;;;;29.53;41.71;100356.44;5052952;28;20116;-73
2021/08/02 01:34:41;;;;;;;20.52;7.88;;;;;;;29.51;41.57;100353.81;5065835;28;20449;-74
2021/08/02 01:37:10;;;;;;;17.10;7.47;;;;;;;29.52;41.50;100357.41;5062255;28;20047;-73
2021/08/02 01:39:43;;;;;;;19.02;7.43;;;;;;;29.61;41.37;100359.47;5053185;28;20037;-71
2021/08/02 01:42:10;;;;;;;16.83;8.10;;;;;;;29.55;41.25;100358.06;5061454;28;20111;-74
2021/08/02 01:44:38;;;;;;;21.27;7.47;;;;;;;29.50;41.31;100352.06;5072647;28;20193;-74
2021/08/02 01:47:11;;;;;;;21.02;8.05;;;;;;;29.53;41.28;100359.16;5072777;28;20032;-73
2021/08/02 01:49:42;;;;;;;21.00;7.57;;;;;;;29.60;41.19;100355.03;5070792;28;20493;-73
2021/08/02 01:52:17;;;;;;;23.67;7.85;;;;;;;29.60;40.92;100342.25;5072067;28;20047;-74
2021/08/02 01:54:55;;;;;;;17.35;7.30;;;;;;;29.66;40.71;100351.88;5072579;28;20068;-73
2021/08/02 01:57:28;;;;;;;20.13;7.22;;;;;;;29.70;40.47;100367.00;5069768;28;20126;-74
2021/08/02 02:00:02;;;;;;;19.53;6.93;;;;;;;29.73;40.15;100364.09;5063157;28;20040;-73
2021/08/02 02:02:33;;;;;;;18.92;7.57;;;;;;;29.73;40.08;100359.47;5072230;28;20045;-74
2021/08/02 02:05:06;;;;;;;20.60;7.07;;;;;;;29.75;39.93;100362.09;5062955;28;20040;-74
2021/08/02 02:07:39;;;;;;;20.17;7.18;;;;;;;29.69;40.13;100368.84;5053753;28;20437;-73
2021/08/02 02:10:11;;;;;;;21.73;7.22;;;;;;;29.69;40.20;100373.41;5071975;28;20436;-74
2021/08/02 02:12:39;;;;;;;20.00;7.05;;;;;;;29.60;40.40;100366.75;5069042;28;20029;-74
2021/08/02 02:15:08;;;;;;;20.92;7.15;;;;;;;29.50;40.33;100367.50;5064950;28;20041;-74
2021/08/02 02:17:37;;;;;;;18.00;7.35;;;;;;;29.50;40.82;100368.38;5051754;28;20076;-75
2021/08/02 02:20:07;;;;;;;18.10;7.72;;;;;;;29.50;40.63;100372.94;5052093;28;20052;-73
2021/08/02 02:22:37;;;;;;;25.23;7.10;;;;;;;29.44;40.66;100367.94;5061220;28;20509;-74
2021/08/02 02:25:07;;;;;;;18.88;7.55;;;;;;;29.40;40.39;100363.69;5060863;28;20041;-74
2021/08/02 02:27:37;;;;;;;15.00;7.38;;;;;;;29.34;40.61;100369.56;5052102;28;20037;-74
2021/08/02 02:30:06;;;;;;;17.83;7.43;;;;;;;29.31;40.75;100362.44;5055629;28;20069;-73
2021/08/02 02:32:36;;;;;;;22.75;7.40;;;;;;;29.29;40.65;100359.81;5069508;28;20060;-73
2021/08/02 02:35:04;;;;;;;22.33;6.95;;;;;;;29.24;40.63;100366.56;5068572;28;20401;-71
2021/08/02 02:37:33;;;;;;;17.85;7.22;;;;;;;29.25;40.44;100366.47;5061696;28;20060;-74
2021/08/02 02:40:00;;;;;;;16.40;7.03;;;;;;;29.25;40.59;100362.84;5060470;28;20072;-75
2021/08/02 02:42:28;;;;;;;16.98;7.70;;;;;;;29.24;40.59;100367.44;5058425;28;20072;-74
2021/08/02 02:44:59;;;;;;;21.75;6.82;;;;;;;29.28;40.83;100371.66;5070474;28;20064;-74
2021/08/02 02:47:28;;;;;;;22.05;7.45;;;;;;;29.26;40.92;100370.03;5071369;28;20048;-74
2021/08/02 02:49:58;;;;;;;20.75;7.65;;;;;;;29.27;40.42;100363.63;5071532;28;20070;-74
2021/08/02 02:52:26;;;;;;;19.45;6.85;;;;;;;29.28;40.05;100363.50;5068758;28;20060;-74
2021/08/02 02:54:56;;;;;;;19.48;7.75;;;;;;;29.28;40.19;100365.34;5051409;28;20397;-74
2021/08/02 02:57:23;;;;;;;23.98;7.70;;;;;;;29.28;40.17;100368.94;5051828;28;20538;-73
2021/08/02 02:59:51;;;;;;;15.93;6.53;;;;;;;29.24;40.53;100372.88;5059684;28;20036;-74
2021/08/02 03:02:23;;;;;;;18.98;7.53;;;;;;;29.22;40.12;100377.53;5055550;28;20436;-74
2021/08/02 03:04:55;;;;;;;17.55;7.28;;;;;;;29.18;40.39;100369.69;5068951;28;20037;-74
2021/08/02 03:07:24;;;;;;;18.08;6.63;;;;;;;29.07;40.83;100380.44;5054917;28;20065;-74
2021/08/02 03:09:51;;;;;;;17.63;7.32;;;;;;;29.05;40.77;100375.09;5051186;28;20045;-74
2021/08/02 03:12:19;;;;;;;24.63;8.30;;;;;;;29.04;40.76;100380.63;5054886;28;20078;-74
2021/08/02 03:14:46;;;;;;;18.70;7.43;;;;;;;29.08;40.42;100380.31;5067472;28;20051;-74
2021/08/02 03:17:14;;;;;;;19.42;7.18;;;;;;;29.14;40.15;100385.34;5065942;28;20032;-74
2021/08/02 03:19:43;;;;;;;22.38;7.90;;;;;;;29.17;40.23;100387.84;5069104;28;20071;-73
2021/08/02 03:22:21;;;;;;;19.10;8.43;;;;;;;29.18;40.37;100392.31;5070382;28;20048;-73
2021/08/02 03:24:52;;;;;;;19.55;8.05;;;;;;;29.13;40.41;100394.50;5064904;28;20040;-74
2021/08/02 03:27:27;;;;;;;22.05;8.35;;;;;;;29.08;40.70;100383.03;5051827;28;20041;-74
2021/08/02 03:29:59;;;;;;;17.65;6.47;;;;;;;29.09;40.49;100379.34;5051433;28;20079;-74
2021/08/02 03:32:29;;;;;;;17.63;7.22;;;;;;;29.12;40.52;100387.28;5055314;28;20089;-72
2021/08/02 03:35:03;;;;;;;25.42;7.07;;;;;;;29.13;40.39;100386.31;5068155;28;20048;-74
2021/08/02 03:37:32;;;;;;;15.93;6.60;;;;;;;29.13;40.53;100390.88;5060522;28;20033;-74
2021/08/02 03:40:03;;;;;;;25.02;7.32;;;;;;;29.16;40.46;100394.25;5061485;28;20453;-74
2021/08/02 03:42:33;;;;;;;20.90;7.45;;;;;;;29.17;40.39;100392.41;5069991;28;20037;-74
2021/08/02 03:45:01;;;;;;;17.23;7.50;;;;;;;29.21;40.57;100383.09;5068789;28;20049;-74
2021/08/02 03:47:29;;;;;;;23.73;7.32;;;;;;;29.24;40.90;100391.03;5053732;28;20110;-73
2021/08/02 03:49:58;;;;;;;16.15;7.20;;;;;;;29.31;40.57;100393.22;5070093;28;20040;-73
2021/08/02 03:52:27;;;;;;;22.42;6.88;;;;;;;29.40;40.48;100393.63;5070302;28;20042;-74
2021/08/02 03:54:55;;;;;;;20.02;6.38;;;;;;;29.51;40.56;100393.75;5070395;28;20068;-73
2021/08/02 03:57:24;;;;;;;19.58;6.85;;;;;;;29.63;40.22;100392.91;5058600;28;20037;-74
2021/08/02 03:59:53;;;;;;;14.07;6.28;;;;;;;29.76;40.17;100398.34;5054300;28;20063;-74
2021/08/02 04:02:21;;;;;;;18.17;6.82;;;;;;;29.87;40.14;100393.03;5069713;28;20060;-73
2021/08/02 04:04:48;;;;;;;25.25;7.22;;;;;;;30.00;40.22;100399.38;5068667;28;20462;-74
2021/08/02 04:07:18;;;;;;;18.92;7.30;;;;;;;30.14;40.40;100403.84;5069395;28;20036;-73
2021/08/02 04:09:45;;;;;;;21.88;7.20;;;;;;;30.25;40.37;100398.53;5069064;28;20047;-73
2021/08/02 04:12:13;;;;;;;16.95;6.30;;;;;;;30.39;40.47;100401.97;5054156;28;20037;-74
2021/08/02 04:14:40;;;;;;;22.83;7.28;;;;;;;30.53;40.38;100413.75;5049768;28;20037;-73
2021/08/02 04:17:08;;;;;;;22.10;7.18;;;;;;;30.63;40.24;100409.38;5049165;28;20044;-74
2021/08/02 04:19:36;;;;;;;20.55;6.72;;;;;;;30.79;40.15;100407.25;5068077;28;20454;-74
2021/08/02 04:22:03;;;;;;;17.40;6.75;;;;;;;30.94;40.48;100417.03;5069928;28;20056;-73
2021/08/02 04:24:32;;;;;;;19.92;6.75;;;;;;;31.10;40.61;100414.06;5060060;28;20120;-74
2021/08/02 04:27:00;;;;;;;15.32;7.05;;;;;;;31.23;40.49;100418.50;5050889;28;20045;-74
2021/08/02 04:29:28;;;;;;;19.45;7.05;;;;;;;31.40;40.77;100405.41;5066669;28;20087;-73
2021/08/02 04:31:55;;;;;;;23.73;7.20;;;;;;;31.56;40.48;100420.50;5069849;28;20121;-74
2021/08/02 04:34:23;;;;;;;22.75;7.18;;;;;;;31.73;40.88;100419.22;5069806;28;20070;-75
2021/08/02 04:36:50;;;;;;;19.10;6.78;;;;;;;31.88;40.44;100422.63;5067877;28;20082;-74
2021/08/02 04:39:18;;;;;;;18.20;7.30;;;;;;;32.02;40.68;100425.13;5068664;28;20043;-74
2021/08/02 04:41:47;;;;;;;21.20;6.13;;;;;;;32.21;40.53;100421.84;5069470;28;20045;-74
2021/08/02 04:44:14;;;;;;;16.70;6.15;;;;;;;32.37;40.24;100427.78;5069842;28;20041;-74
2021/08/02 04:46:42;;;;;;;22.17;6.63;;;;;;;32.56;40.16;100427.19;5052435;28;20045;-74
2021/08/02 04:49:10;;;;;;;15.40;6.05;;;;;;;32.70;39.67;100429.69;5057312;28;20045;-73
2021/08/02 04:51:37;;;;;;;16.73;5.93;;;;;;;32.83;39.42;100430.41;5059295;28;20438;-74
2021/08/02 04:54:05;;;;;;;22.67;5.85;;;;;;;32.90;38.98;100434.38;5070939;28;20126;-74
2021/08/02 04:56:32;;;;;;;18.63;6.22;;;;;;;32.97;39.07;100432.00;5069796;28;20061;-74
2021/08/02 04:59:01;;;;;;;17.52;6.53;;;;;;;33.14;38.51;100432.38;5061938;28;20063;-75
2021/08/02 05:01:29;;;;;;;14.82;5.43;;;;;;;33.36;38.37;100428.69;5059269;28;20124;-75
2021/08/02 05:03:57;;;;;;;14.68;6.97;;;;;;;33.50;38.26;100433.00;5063913;28;20036;-74
2021/08/02 05:06:25;;;;;;;18.35;5.75;;;;;;;33.70;38.15;100439.53;5071348;28;20041;-73
2021/08/02 05:08:52;;;;;;;12.93;5.90;;;;;;;33.91;37.40;100441.31;5060798;28;20394;-74
2021/08/02 05:11:20;;;;;;;15.02;5.95;;;;;;;34.14;37.06;100442.03;5070347;28;20539;-74
2021/08/02 05:13:47;;;;;;;19.67;6.72;;;;;;;34.29;37.05;100440.72;5072269;28;20409;-74
2021/08/02 05:16:17;;;;;;;13.93;5.32;;;;;;;34.47;36.85;100446.41;5072067;28;20045;-74
2021/08/02 05:18:44;;;;;;;20.42;5.75;;;;;;;34.68;36.59;100447.25;5071069;28;20040;-74
2021/08/02 05:21:12;;;;;;;16.30;6.10;;;;;;;34.94;35.94;100447.66;5071189;28;20088;-74
2021/08/02 05:23:39;;;;;;;14.40;5.60;;;;;;;35.02;35.53;100447.84;5071541;28;20039;-74
2021/08/02 05:26:07;;;;;;;14.93;5.93;;;;;;;35.23;35.44;100447.78;5068598;28;20394;-75
2021/08/02 05:28:35;;;;;;;14.50;6.30;;;;;;;35.52;34.96;100447.78;5069705;28;20037;-69
2021/08/02 05:31:02;;;;;;;15.95;6.32;;;;;;;35.73;34.67;100451.28;5071891;28;20041;-75
2021/08/02 05:33:31;;;;;;;15.70;6.22;;;;;;;35.75;34.35;100448.41;5072881;28;20048;-75
2021/08/02 05:36:03;;;;;;;16.73;5.45;;;;;;;35.85;34.01;100463.00;5071950;28;20082;-74
2021/08/02 05:38:31;;;;;;;13.88;5.05;;;;;;;35.99;33.82;100457.06;5072666;28;20037;-73
2021/08/02 05:40:59;;;;;;;14.75;5.93;;;;;;;36.06;33.64;100458.19;5065015;28;20051;-74
2021/08/02 05:43:26;;;;;;;15.95;5.40;;;;;;;36.27;33.42;100458.94;5066076;28;20051;-73
2021/08/02 05:45:54;;;;;;;18.65;5.80;;;;;;;36.45;32.92;100460.88;5071747;28;20037;-74
2021/08/02 05:48:23;;;;;;;16.30;5.78;;;;;;;36.68;32.92;100465.91;5071544;28;20146;-74
2021/08/02 05:50:52;;;;;;;24.17;6.25;;;;;;;37.01;32.49;100466.34;5070554;28;20064;-74
2021/08/02 05:53:19;;;;;;;14.20;6.57;;;;;;;37.31;32.29;100476.19;5071784;28;20037;-74
2021/08/02 05:55:46;;;;;;;12.75;5.45;;;;;;;37.50;31.72;100476.91;5071613;28;20033;-74
2021/08/02 05:58:14;;;;;;;15.98;5.43;;;;;;;37.66;31.36;100467.13;5072237;28;20045;-74
2021/08/02 06:00:42;;;;;;;17.65;5.88;;;;;;;37.76;31.11;100471.50;5071088;28;20047;-74
2021/08/02 06:03:10;;;;;;;16.23;5.35;;;;;;;37.68;31.38;100484.38;5071017;28;20037;-74
2021/08/02 06:05:38;;;;;;;19.52;5.68;;;;;;;37.85;31.14;100473.31;5069855;28;20037;-75
2021/08/02 06:08:07;;;;;;;16.60;4.97;;;;;;;37.81;30.94;100490.34;5071893;28;20041;-73
2021/08/02 06:10:35;;;;;;;16.95;6.03;;;;;;;37.88;31.05;100478.50;5071036;28;20090;-70
2021/08/02 06:13:02;;;;;;;12.63;5.10;;;;;;;37.88;30.85;100492.28;5071542;28;20045;-74
2021/08/02 06:15:30;;;;;;;16.48;5.93;;;;;;;37.80;31.10;100486.72;5071769;28;20582;-75
2021/08/02 06:17:57;;;;;;;15.45;5.68;;;;;;;37.86;31.08;100477.81;5066949;28;20076;-74
2021/08/02 06:20:25;;;;;;;12.18;5.28;;;;;;;37.77;31.17;100478.75;5070414;28;20048;-75
2021/08/02 06:22:52;;;;;;;15.27;5.28;;;;;;;37.86;30.76;100486.09;5071117;28;20056;-75
2021/08/02 06:25:21;;;;;;;13.70;5.55;;;;;;;37.93;30.83;100478.06;5066869;28;20037;-75
2021/08/02 06:27:49;;;;;;;18.73;6.40;;;;;;;38.02;30.69;100484.47;5056310;28;20583;-74
2021/08/02 06:30:18;;;;;;;12.95;5.03;;;;;;;38.06;30.80;100473.03;5071213;28;20064;-75
2021/08/02 06:32:45;;;;;;;14.45;5.93;;;;;;;38.04;30.90;100477.81;5069626;28;20072;-76
2021/08/02 06:35:13;;;;;;;9.43;4.97;;;;;;;38.18;30.82;100468.97;5070948;28;20116;-73
2021/08/02 06:37:41;;;;;;;12.32;4.95;;;;;;;38.25;30.67;100477.47;5070718;28;20410;-73
2021/08/02 06:40:11;;;;;;;17.02;6.20;;;;;;;38.20;30.82;100477.94;5070668;28;20047;-74
2021/08/02 06:42:41;;;;;;;12.02;5.50;;;;;;;38.26;31.20;100481.97;5053820;28;20120;-74
2021/08/02 06:45:10;;;;;;;13.05;5.38;;;;;;;38.29;31.26;100482.50;5056681;28;20053;-73
2021/08/02 06:47:38;;;;;;;19.85;5.80;;;;;;;38.12;31.46;100471.50;5052577;28;20094;-71
2021/08/02 06:50:07;;;;;;;14.98;5.38;;;;;;;38.16;31.46;100468.25;5067883;28;20064;-72
2021/08/02 06:52:35;;;;;;;13.63;5.05;;;;;;;38.22;31.61;100473.13;5071146;28;20040;-73
2021/08/02 06:55:02;;;;;;;16.73;5.68;;;;;;;38.37;31.09;100470.66;5065471;28;20049;-75
2021/08/02 06:57:31;;;;;;;15.40;5.53;;;;;;;38.48;30.96;100450.22;5065510;28;20125;-74
2021/08/02 07:00:00;;;;;;;22.25;5.80;;;;;;;38.48;30.64;100484.22;5069037;28;20071;-73
2021/08/02 07:02:27;;;;;;;11.85;5.20;;;;;;;38.57;30.56;100474.97;5069461;28;20059;-74
2021/08/02 07:04:55;;;;;;;17.45;5.28;;;;;;;38.62;30.19;100475.31;5070845;28;22462;-74
2021/08/02 07:07:22;;;;;;;14.05;4.88;;;;;;;38.49;29.94;100474.91;5067183;28;20584;-74
2021/08/02 07:09:50;;;;;;;12.65;5.40;;;;;;;38.56;30.05;100483.41;5061765;28;20056;-73
2021/08/02 07:12:17;;;;;;;14.65;5.93;;;;;;;38.58;29.65;100479.44;5071338;28;20072;-73
2021/08/02 07:14:45;;;;;;;13.90;4.80;;;;;;;38.54;29.89;100478.03;5070445;28;20088;-74
2021/08/02 07:17:13;;;;;;;11.50;5.18;;;;;;;38.68;29.58;100452.56;5054703;28;20498;-74
2021/08/02 07:19:41;;;;;;;13.90;5.70;;;;;;;38.64;29.59;100488.97;5060211;28;20063;-73
2021/08/02 07:22:08;;;;;;;19.08;5.88;;;;;;;38.78;29.69;100488.38;5050976;28;20116;-73
2021/08/02 07:24:36;;;;;;;17.42;5.40;;;;;;;38.99;29.56;100499.03;5051122;28;20057;-74
2021/08/02 07:27:03;;;;;;;16.17;5.28;;;;;;;39.21;29.48;100484.59;5049782;28;20037;-72
2021/08/02 07:29:31;;;;;;;12.75;4.97;;;;;;;39.34;28.74;100489.63;5062889;28;20051;-74
2021/08/02 07:31:59;;;;;;;19.45;4.93;;;;;;;39.20;28.80;100488.38;5050367;28;20049;-75
2021/08/02 07:34:28;;;;;;;14.70;5.20;;;;;;;39.19;28.66;100485.81;5057701;28;20040;-74
2021/08/02 07:36:55;;;;;;;10.70;4.57;;;;;;;39.20;28.58;100474.56;5055141;28;20128;-73
2021/08/02 07:39:23;;;;;;;19.45;5.90;;;;;;;39.30;28.54;100493.78;5069208;28;20090;-73
2021/08/02 07:41:50;;;;;;;13.75;4.72;;;;;;;39.51;28.22;100485.06;5069918;28;20554;-72
2021/08/02 07:44:18;;;;;;;15.82;5.35;;;;;;;39.57;28.17;100496.31;5052193;28;20093;-73
2021/08/02 07:46:45;;;;;;;14.60;4.93;;;;;;;39.60;28.00;100492.31;5051598;28;20053;-73
2021/08/02 07:49:13;;;;;;;15.35;4.97;;;;;;;39.77;27.86;100505.16;5048810;28;20401;-73
2021/08/02 07:51:42;;;;;;;13.90;4.82;;;;;;;39.85;27.69;100510.69;5060813;28;20040;-73
2021/08/02 07:54:11;;;;;;;14.18;5.20;;;;;;;39.96;27.67;100515.91;5070864;28;20050;-73
2021/08/02 07:56:38;;;;;;;15.02;5.57;;;;;;;39.94;28.01;100512.44;5055689;28;20559;-74
2021/08/02 07:59:06;;;;;;;12.63;4.63;;;;;;;40.01;27.76;100512.63;5050708;28;20106;-70
2021/08/02 08:01:33;;;;;;;11.95;4.97;;;;;;;39.97;27.55;100511.25;5068838;28;20040;-72
2021/08/02 08:04:01;;;;;;;15.30;5.57;;;;;;;40.03;27.60;100505.91;5070479;28;20771;-73
2021/08/02 08:06:28;;;;;;;16.70;5.88;;;;;;;39.98;27.75;100513.81;5068731;28;20462;-73
2021/08/02 08:08:57;;;;;;;14.23;5.15;;;;;;;40.12;28.00;100515.91;5070204;28;20052;-73
2021/08/02 08:11:25;;;;;;;14.40;5.05;;;;;;;40.25;28.15;100514.53;5070787;28;20064;-74
2021/08/02 08:13:52;;;;;;;16.80;5.35;;;;;;;40.32;27.74;100516.44;5070308;28;20497;-72
2021/08/02 08:16:20;;;;;;;11.45;5.18;;;;;;;40.33;27.49;100518.19;5066893;28;20078;-73
2021/08/02 08:18:47;;;;;;;13.00;5.07;;;;;;;40.34;27.66;100517.16;5068143;28;20041;-73
2021/08/02 08:21:15;;;;;;;12.60;5.10;;;;;;;40.25;27.34;100520.94;5055087;28;20448;-73
2021/08/02 08:23:42;;;;;;;20.33;5.72;;;;;;;40.19;27.31;100518.84;5068865;28;20124;-73
2021/08/02 08:26:12;;;;;;;12.98;5.80;;;;;;;40.39;27.15;100511.94;5069781;28;20440;-72
2021/08/02 08:28:40;;;;;;;12.00;4.72;;;;;;;40.43;27.12;100518.88;5071326;28;20041;-72
2021/08/02 08:31:08;;;;;;;15.85;4.88;;;;;;;40.41;26.98;100517.31;5073960;28;20036;-73
2021/08/02 08:33:35;;;;;;;11.02;4.90;;;;;;;40.34;26.93;100514.38;5074779;28;20045;-73
2021/08/02 08:36:03;;;;;;;16.15;5.28;;;;;;;40.30;26.99;100515.78;5074721;28;20053;-73
2021/08/02 08:38:30;;;;;;;12.30;4.88;;;;;;;40.38;27.09;100512.13;5073864;28;20555;-72
2021/08/02 08:40:58;;;;;;;15.15;5.85;;;;;;;40.55;26.52;100500.84;5074040;28;20047;-73
2021/08/02 08:43:27;;;;;;;14.93;4.70;;;;;;;40.52;26.20;100516.94;5074306;28;20060;-73
2021/08/02 08:45:55;;;;;;;15.10;5.45;;;;;;;40.42;26.20;100510.75;5074052;28;20112;-72
2021/08/02 08:48:22;;;;;;;10.95;5.35;;;;;;;40.41;25.98;100509.00;5074163;28;20044;-73
2021/08/02 08:50:51;;;;;;;14.20;4.78;;;;;;;40.40;25.84;100507.28;5070558;28;20037;-73
2021/08/02 08:53:22;;;;;;;14.13;5.65;;;;;;;40.50;26.04;100508.81;5074109;28;20041;-73
2021/08/02 08:55:50;;;;;;;8.95;4.65;;;;;;;40.42;26.14;100503.31;5074239;28;20090;-73
2021/08/02 08:58:17;;;;;;;11.98;5.20;;;;;;;40.45;25.60;100500.16;5055943;28;20502;-73
2021/08/02 09:00:47;;;;;;;12.45;5.38;;;;;;;40.61;25.10;100505.69;5072993;28;20124;-73
2021/08/02 09:03:15;;;;;;;12.95;4.63;;;;;;;40.72;25.37;100504.47;5073983;28;20056;-72
2021/08/02 09:05:43;;;;;;;15.13;5.18;;;;;;;40.74;25.31;100504.31;5073225;28;20037;-73
2021/08/02 09:08:13;;;;;;;10.50;4.55;;;;;;;40.51;25.50;100504.13;5073730;28;20078;-72
2021/08/02 09:10:41;;;;;;;15.45;5.15;;;;;;;40.71;25.45;100499.09;5072491;28;20491;-72
2021/08/02 09:13:08;;;;;;;12.50;5.10;;;;;;;40.75;25.28;100500.50;5073711;28;20072;-72
2021/08/02 09:15:42;;;;;;;13.55;4.68;;;;;;;40.82;25.31;100496.84;5074255;28;20041;-72
2021/08/02 09:18:17;;;;;;;17.92;5.57;;;;;;;40.86;25.41;100489.88;5073216;28;20037;-72
2021/08/02 09:20:44;;;;;;;9.93;4.70;;;;;;;40.92;25.17;100496.63;5069774;28;20068;-71
2021/08/02 09:23:14;;;;;;;14.60;5.00;;;;;;;41.02;24.88;100497.28;5061520;28;20086;-72
2021/08/02 09:25:49;;;;;;;14.52;5.13;;;;;;;40.95;24.73;100499.91;5072324;28;20090;-71
2021/08/02 09:28:21;;;;;;;13.27;4.53;;;;;;;40.97;24.45;100481.19;5071595;28;20054;-72
2021/08/02 09:31:01;;;;;;;10.90;5.00;;;;;;;41.02;24.17;100488.09;5064668;28;20409;-72
2021/08/02 09:33:44;;;;;;;10.82;4.82;;;;;;;41.02;24.09;100485.34;5069339;28;20036;-74
2021/08/02 09:36:12;;;;;;;12.02;4.93;;;;;;;40.88;24.93;100496.13;5071160;28;20040;-71
2021/08/02 09:38:40;;;;;;;10.63;4.80;;;;;;;40.86;25.23;100489.88;5067734;28;20044;-68
2021/08/02 09:41:08;;;;;;;11.70;4.85;;;;;;;40.62;25.04;100484.41;5068863;28;20536;-67
2021/08/02 09:43:35;;;;;;;12.05;5.05;;;;;;;40.61;25.09;100488.22;5072013;28;20048;-68
2021/08/02 09:46:04;;;;;;;15.13;4.47;;;;;;;40.80;24.86;100476.75;5072244;28;20123;-69
2021/08/02 09:48:38;;;;;;;15.00;4.38;;;;;;;40.93;24.04;100479.81;5070858;28;20138;-68
2021/08/02 09:51:13;;;;;;;12.50;4.63;;;;;;;40.93;24.05;100471.50;5070688;28;20045;-68
2021/08/02 09:53:43;;;;;;;14.02;4.18;;;;;;;40.92;23.37;100472.53;5066268;28;20516;-68
2021/08/02 09:56:13;;;;;;;10.57;4.20;;;;;;;40.81;23.00;100466.53;5071108;28;20039;-68
2021/08/02 09:58:43;;;;;;;13.48;5.32;;;;;;;40.53;23.71;100466.94;5070662;28;20036;-67
2021/08/02 10:01:12;;;;;;;12.50;4.45;;;;;;;40.62;24.20;100473.31;5067806;28;20064;-68
2021/08/02 10:03:42;;;;;;;10.32;4.47;;;;;;;40.54;23.90;100467.81;5067053;28;20505;-67
2021/08/02 10:06:11;;;;;;;8.85;4.00;;;;;;;40.29;23.28;100466.13;5071495;28;20882;-67
2021/08/02 10:08:39;;;;;;;11.75;4.05;;;;;;;39.74;23.38;100472.28;5071159;28;20064;-69
2021/08/02 10:11:07;;;;;;;12.05;5.10;;;;;;;39.82;23.76;100477.88;5068953;28;20047;-69
2021/08/02 10:13:37;;;;;;;14.43;5.05;;;;;;;40.08;24.00;100466.63;5071255;28;20039;-69
2021/08/02 10:16:07;;;;;;;12.98;4.45;;;;;;;40.21;24.13;100464.19;5068340;28;20051;-69
2021/08/02 10:18:34;;;;;;;11.63;4.05;;;;;;;40.29;24.10;100464.22;5072191;28;20127;-69
2021/08/02 10:21:08;;;;;;;10.55;4.20;;;;;;;40.16;24.21;100461.09;5071645;28;20047;-70
2021/08/02 10:23:37;;;;;;;9.90;4.80;;;;;;;40.21;24.50;100459.53;5071223;28;20043;-68
2021/08/02 10:26:18;;;;;;;11.05;4.43;;;;;;;40.25;24.62;100459.19;5070517;28;20573;-69
2021/08/02 10:28:53;;;;;;;14.23;4.35;;;;;;;40.19;24.50;100467.13;5070497;28;20032;-69
2021/08/02 10:31:21;;;;;;;13.25;5.05;;;;;;;40.20;24.26;100470.78;5071111;28;20394;-70
2021/08/02 10:33:49;;;;;;;10.68;4.82;;;;;;;40.18;24.44;100465.41;5070615;28;20052;-69
2021/08/02 10:36:20;;;;;;;15.90;4.18;;;;;;;40.08;24.26;100461.97;5069656;28;20045;-69
2021/08/02 10:38:49;;;;;;;10.35;4.85;;;;;;;39.77;24.49;100469.22;5070632;28;20048;-69
2021/08/02 10:41:25;;;;;;;11.50;4.70;;;;;;;39.74;24.53;100466.75;5071120;28;20112;-68
2021/08/02 10:43:53;;;;;;;14.73;4.68;;;;;;;39.79;24.62;100464.34;5070452;28;20036;-68
2021/08/02 10:46:22;;;;;;;10.48;4.65;;;;;;;39.77;24.28;100461.78;5070067;28;20043;-68
2021/08/02 10:48:53;;;;;;;10.52;4.20;;;;;;;39.90;24.47;100454.91;5071063;28;20058;-67
2021/08/02 10:51:25;;;;;;;8.15;4.43;;;;;;;39.87;24.30;100456.09;5069636;28;20068;-69
2021/08/02 10:53:59;;;;;;;16.10;5.05;;;;;;;39.79;24.44;100458.81;5070633;28;20040;-68
2021/08/02 10:56:28;;;;;;;11.32;4.75;;;;;;;39.83;24.78;100454.72;5069414;28;20047;-70
2021/08/02 10:58:56;;;;;;;16.67;5.72;;;;;;;39.85;24.77;100449.84;5070254;28;20105;-67
2021/08/02 11:01:26;;;;;;;11.73;4.30;;;;;;;39.94;24.66;100446.06;5069334;28;20064;-69
2021/08/02 11:03:55;;;;;;;10.80;4.25;;;;;;;39.98;24.48;100452.09;5070570;28;20047;-68
2021/08/02 11:06:25;;;;;;;14.43;5.28;;;;;;;40.03;24.59;100438.63;5068827;28;20068;-69
2021/08/02 11:08:55;;;;;;;10.38;4.40;;;;;;;40.11;24.30;100438.59;5069964;28;20037;-70
2021/08/02 11:11:25;;;;;;;12.55;4.85;;;;;;;40.01;24.13;100438.81;5069436;28;20055;-69
2021/08/02 11:13:53;;;;;;;9.85;4.75;;;;;;;40.13;23.97;100429.09;5070511;28;20115;-69
2021/08/02 11:16:21;;;;;;;11.68;5.20;;;;;;;40.19;23.71;100428.41;5070270;28;20041;-69
2021/08/02 11:18:48;;;;;;;12.52;4.78;;;;;;;40.28;23.94;100437.59;5069461;28;20044;-69
2021/08/02 11:21:27;;;;;;;10.32;4.68;;;;;;;40.14;24.13;100427.19;5069472;28;20068;-69
2021/08/02 11:23:55;;;;;;;11.45;4.60;;;;;;;40.25;23.79;100432.38;5070151;28;20037;-69
2021/08/02 11:26:23;;;;;;;9.63;4.30;;;;;;;40.40;23.67;100424.22;5046583;28;20045;-70
2021/08/02 11:28:54;;;;;;;9.52;4.40;;;;;;;40.55;23.51;100428.00;5068646;28;20049;-71